createdAt,value
2018-01-23T00:00:59.365Z,39.20
2018-01-23T00:03:25.555Z,58.03
2018-01-23T00:05:51.735Z,62.00
2018-01-23T00:08:17.932Z,118.07
2018-01-23T00:10:44.118Z,209.33
2018-01-23T00:13:10.315Z,49.80
2018-01-23T00:15:36.495Z,43.73
2018-01-23T00:18:02.719Z,43.40
2018-01-23T00:20:28.899Z,53.73
2018-01-23T00:22:55.099Z,44.40
2018-01-23T00:25:21.299Z,44.00
2018-01-23T00:27:47.590Z,31.73
2018-01-23T00:30:14.583Z,17.93
2018-01-23T00:32:40.779Z,22.87
2018-01-23T00:35:07.699Z,18.30
2018-01-23T00:37:33.891Z,24.67
2018-01-23T00:40:00.068Z,16.13
2018-01-23T00:42:26.271Z,21.17
2018-01-23T00:44:52.466Z,21.73
2018-01-23T00:47:18.643Z,21.53
2018-01-23T00:49:44.844Z,20.90
2018-01-23T00:52:11.019Z,20.27
2018-01-23T00:54:37.963Z,15.37
2018-01-23T00:57:04.882Z,20.03
2018-01-23T00:59:31.084Z,18.77
2018-01-23T01:01:57.258Z,27.53
2018-01-23T01:04:23.479Z,21.43
2018-01-23T01:06:49.650Z,25.90
2018-01-23T01:09:15.824Z,17.57
2018-01-23T01:11:42.795Z,16.60
2018-01-23T01:14:09.715Z,11.63
2018-01-23T01:16:35.916Z,15.60
2018-01-23T01:19:08.978Z,13.03
2018-01-23T01:21:35.174Z,7.57
2018-01-23T01:24:01.350Z,8.87
2018-01-23T01:26:27.551Z,9.43
2018-01-23T01:28:54.499Z,2.53
2018-01-23T01:31:22.219Z,8.00
2018-01-23T01:33:48.550Z,10.97
2018-01-23T01:36:14.747Z,5.87
2018-01-23T01:38:40.922Z,6.67
2018-01-23T01:41:07.123Z,4.30
2018-01-23T01:43:33.291Z,6.70
2018-01-23T01:45:59.508Z,8.83
2018-01-23T01:48:25.719Z,7.57
2018-01-23T01:50:51.895Z,4.60
2018-01-23T01:53:18.841Z,6.93
2018-01-23T01:55:46.019Z,2.67
2018-01-23T01:58:12.220Z,3.73
2018-01-23T02:00:39.134Z,8.13
2018-01-23T02:03:05.628Z,5.70
2018-01-23T02:05:31.815Z,8.10
2018-01-23T02:07:58.779Z,8.43
2018-01-23T02:10:28.606Z,8.00
2018-01-23T02:12:56.117Z,16.10
2018-01-23T02:15:22.432Z,21.30
2018-01-23T02:17:49.172Z,13.53
2018-01-23T02:20:16.532Z,15.07
2018-01-23T02:22:43.269Z,11.70
2018-01-23T02:25:10.268Z,25.23
2018-01-23T02:27:36.476Z,27.47
2018-01-23T02:30:02.740Z,33.43
2018-01-23T02:32:28.929Z,36.03
2018-01-23T02:34:55.886Z,177.43
2018-01-23T02:37:22.900Z,152.20
2018-01-23T02:39:49.080Z,107.20
2018-01-23T02:42:15.315Z,97.63
2018-01-23T02:44:41.493Z,150.53
2018-01-23T02:47:08.044Z,36.70
2018-01-23T02:49:34.254Z,41.53
2018-01-23T02:52:00.435Z,37.23
2018-01-23T02:54:26.648Z,43.33
2018-01-23T02:56:53.572Z,29.07
2018-01-23T02:59:20.060Z,38.53
2018-01-23T03:01:46.238Z,38.93
2018-01-23T03:04:12.455Z,33.77
2018-01-23T03:06:38.639Z,227.53
2018-01-23T03:09:05.299Z,317.27
2018-01-23T03:11:31.476Z,292.07
2018-01-23T03:13:58.430Z,253.30
2018-01-23T03:16:25.347Z,343.40
2018-01-23T03:18:53.088Z,334.53
2018-01-23T03:21:19.271Z,345.67
2018-01-23T03:23:46.190Z,304.13
2018-01-23T03:26:12.402Z,379.30
2018-01-23T03:28:38.616Z,274.00
2018-01-23T03:31:04.823Z,301.33
2018-01-23T03:33:31.032Z,260.10
2018-01-23T03:35:58.015Z,370.00
2018-01-23T03:38:24.195Z,378.47
2018-01-23T03:40:51.151Z,325.07
2018-01-23T03:43:18.076Z,423.53
2018-01-23T03:45:44.287Z,419.27
2018-01-23T03:48:10.463Z,432.60
2018-01-23T03:50:36.671Z,226.73
2018-01-23T03:53:03.592Z,228.83
2018-01-23T03:55:29.799Z,94.93
2018-01-23T03:57:55.982Z,160.80
2018-01-23T04:00:22.912Z,137.83
2018-01-23T04:02:49.302Z,234.63
2018-01-23T04:05:15.470Z,221.07
2018-01-23T04:07:41.675Z,240.30
2018-01-23T04:10:07.879Z,237.57
2018-01-23T04:12:34.096Z,202.33
2018-01-23T04:15:00.283Z,119.03
2018-01-23T04:17:26.492Z,80.07
2018-01-23T04:19:52.671Z,89.90
2018-01-23T04:22:18.878Z,155.60
2018-01-23T04:24:45.794Z,299.23
2018-01-23T04:27:12.007Z,178.67
2018-01-23T04:29:38.178Z,38.67
2018-01-23T04:32:05.625Z,46.20
2018-01-23T04:34:31.827Z,288.77
2018-01-23T04:36:58.091Z,210.73
2018-01-23T04:39:25.015Z,384.90
2018-01-23T04:41:51.198Z,305.87
2018-01-23T04:44:17.399Z,266.67
2018-01-23T04:46:44.327Z,332.60
2018-01-23T04:49:10.536Z,243.67
2018-01-23T04:51:36.715Z,325.27
2018-01-23T04:54:03.667Z,337.43
2018-01-23T04:56:29.848Z,350.50
2018-01-23T04:58:56.054Z,337.13
2018-01-23T05:01:22.227Z,306.43
2018-01-23T05:03:49.179Z,199.00
2018-01-23T05:06:16.096Z,103.83
2018-01-23T05:08:42.307Z,88.20
2018-01-23T05:11:08.479Z,90.77
2018-01-23T05:13:35.429Z,136.87
2018-01-23T05:16:02.367Z,260.80
2018-01-23T05:18:29.315Z,350.83
2018-01-23T05:20:56.239Z,352.93
2018-01-23T05:23:22.442Z,317.93
2018-01-23T05:25:48.622Z,252.50
2018-01-23T05:28:15.570Z,330.33
2018-01-23T05:30:42.495Z,346.67
2018-01-23T05:33:08.763Z,332.20
2018-01-23T05:35:34.967Z,392.93
2018-01-23T05:38:01.914Z,362.03
2018-01-23T05:40:28.839Z,273.93
2018-01-23T05:42:55.047Z,221.70
2018-01-23T05:45:21.227Z,89.77
2018-01-23T05:47:48.199Z,53.63
2018-01-23T05:50:14.380Z,52.07
2018-01-23T05:52:41.584Z,53.07
2018-01-23T05:55:07.791Z,49.80
2018-01-23T05:57:33.970Z,39.60
2018-01-23T06:00:00.204Z,76.67
2018-01-23T06:02:26.703Z,45.40
2018-01-23T06:04:52.914Z,53.77
2018-01-23T06:07:19.163Z,76.50
2018-01-23T06:09:45.403Z,41.87
2018-01-23T06:12:11.592Z,87.40
2018-01-23T06:14:38.558Z,125.30
2018-01-23T06:17:04.742Z,165.33
2018-01-23T06:19:30.918Z,245.43
2018-01-23T06:21:57.130Z,103.00
2018-01-23T06:24:30.374Z,153.60
2018-01-23T06:26:56.610Z,176.23
2018-01-23T06:29:22.795Z,262.77
2018-01-23T06:31:49.003Z,220.73
2018-01-23T06:34:15.943Z,124.77
2018-01-23T06:36:42.923Z,225.83
2018-01-23T06:39:09.107Z,173.97
2018-01-23T06:41:36.083Z,137.13
2018-01-23T06:44:02.282Z,63.60
2018-01-23T06:46:29.236Z,233.63
2018-01-23T06:48:56.158Z,186.13
2018-01-23T06:51:22.387Z,248.97
2018-01-23T06:53:48.583Z,113.40
2018-01-23T06:56:14.787Z,41.77
2018-01-23T06:58:40.969Z,51.23
2018-01-23T07:01:07.191Z,46.90
2018-01-23T07:03:33.391Z,58.50
2018-01-23T07:05:59.626Z,89.17
2018-01-23T07:08:25.822Z,99.83
2018-01-23T07:10:52.195Z,69.60
2018-01-23T07:13:18.367Z,40.17
2018-01-23T07:15:45.286Z,53.17
2018-01-23T07:18:11.497Z,60.77
2018-01-23T07:20:37.701Z,50.90
2018-01-23T07:23:03.907Z,58.53
2018-01-23T07:25:30.095Z,47.13
2018-01-23T07:27:56.303Z,28.20
2018-01-23T07:30:22.486Z,52.10
2018-01-23T07:32:49.455Z,67.63
2018-01-23T07:35:15.664Z,51.70
2018-01-23T07:37:42.617Z,50.13
2018-01-23T07:40:09.542Z,32.07
2018-01-23T07:42:35.751Z,86.83
2018-01-23T07:45:01.963Z,71.83
2018-01-23T07:47:28.161Z,50.93
2018-01-23T07:49:54.338Z,55.97
2018-01-23T07:52:20.606Z,48.00
2018-01-23T07:54:47.527Z,48.73
2018-01-23T07:57:13.751Z,42.63
2018-01-23T07:59:39.935Z,55.20
2018-01-23T08:02:06.878Z,59.33
2018-01-23T08:04:33.059Z,78.40
2018-01-23T08:06:59.267Z,70.17
2018-01-23T08:09:25.447Z,58.57
2018-01-23T08:11:51.651Z,52.30
2018-01-23T08:14:18.570Z,78.57
2018-01-23T08:16:44.815Z,64.87
2018-01-23T08:19:10.994Z,65.80
2018-01-23T08:21:37.171Z,62.43
2018-01-23T08:24:03.386Z,52.87
2018-01-23T08:26:29.563Z,57.57
2018-01-23T08:28:55.843Z,54.40
2018-01-23T08:31:29.075Z,74.87
2018-01-23T08:33:56.027Z,35.80
2018-01-23T08:36:22.243Z,63.63
2018-01-23T08:38:49.199Z,47.70
2018-01-23T08:41:16.301Z,53.47
2018-01-23T08:43:42.507Z,56.77
2018-01-23T08:46:08.687Z,49.50
2018-01-23T08:48:35.639Z,48.60
2018-01-23T08:51:02.563Z,44.00
2018-01-23T08:53:28.812Z,45.80
2018-01-23T08:55:55.734Z,38.83
2018-01-23T08:58:21.937Z,32.17
2018-01-23T09:00:48.139Z,35.90
2018-01-23T09:03:14.320Z,29.60
2018-01-23T09:05:40.532Z,35.80
2018-01-23T09:08:06.715Z,29.80
2018-01-23T09:10:32.936Z,35.50
2018-01-23T09:12:59.127Z,34.43
2018-01-23T09:15:25.339Z,37.73
2018-01-23T09:17:51.514Z,33.47
2018-01-23T09:20:18.463Z,29.03
2018-01-23T09:22:45.387Z,38.30
2018-01-23T09:25:12.342Z,33.87
2018-01-23T09:27:38.539Z,26.77
2018-01-23T09:30:04.750Z,34.97
2018-01-23T09:32:30.943Z,26.13
2018-01-23T09:34:57.945Z,37.83
2018-01-23T09:37:24.151Z,42.20
2018-01-23T09:39:50.371Z,32.63
2018-01-23T09:42:16.582Z,37.47
2018-01-23T09:44:43.506Z,36.47
2018-01-23T09:47:09.711Z,28.50
2018-01-23T09:49:35.890Z,41.03
2018-01-23T09:52:02.095Z,39.83
2018-01-23T09:54:28.274Z,35.37
2018-01-23T09:56:54.859Z,38.77
2018-01-23T09:59:21.783Z,29.13
2018-01-23T10:01:47.992Z,33.60
2018-01-23T10:04:14.171Z,29.17
2018-01-23T10:06:41.162Z,31.47
2018-01-23T10:09:07.322Z,39.07
2018-01-23T10:11:33.532Z,25.90
2018-01-23T10:13:59.711Z,34.90
2018-01-23T10:16:27.012Z,33.30
2018-01-23T10:18:53.195Z,37.83
2018-01-23T10:21:20.115Z,29.50
2018-01-23T10:23:46.359Z,43.43
2018-01-23T10:26:13.802Z,37.27
2018-01-23T10:28:39.996Z,34.87
2018-01-23T10:31:06.183Z,38.27
2018-01-23T10:33:33.135Z,27.13
2018-01-23T10:35:59.411Z,47.80
2018-01-23T10:38:25.623Z,38.53
2018-01-23T10:40:51.799Z,38.90
2018-01-23T10:43:18.190Z,38.70
2018-01-23T10:45:44.375Z,40.67
2018-01-23T10:48:11.315Z,43.57
2018-01-23T10:50:38.262Z,34.90
2018-01-23T10:53:05.191Z,38.83
2018-01-23T10:55:31.435Z,41.43
2018-01-23T10:57:58.351Z,40.17
2018-01-23T11:00:24.581Z,37.17
2018-01-23T11:02:50.760Z,34.27
2018-01-23T11:05:24.100Z,46.83
2018-01-23T11:07:57.258Z,42.83
2018-01-23T11:10:23.475Z,29.07
2018-01-23T11:12:49.655Z,42.53
2018-01-23T11:15:16.615Z,33.53
2018-01-23T11:17:42.786Z,32.90
2018-01-23T11:20:08.994Z,31.90
2018-01-23T11:22:35.928Z,33.97
2018-01-23T11:25:02.875Z,29.13
2018-01-23T11:27:29.790Z,43.03
2018-01-23T11:29:56.033Z,38.83
2018-01-23T11:32:22.219Z,31.67
2018-01-23T11:34:48.451Z,26.63
2018-01-23T11:37:14.655Z,39.57
2018-01-23T11:39:40.832Z,36.80
2018-01-23T11:42:07.039Z,28.07
2018-01-23T11:44:33.211Z,34.43
2018-01-23T11:46:59.443Z,27.73
2018-01-23T11:49:29.408Z,28.40
2018-01-23T11:51:55.583Z,37.50
2018-01-23T11:54:21.793Z,29.00
2018-01-23T11:56:48.650Z,30.53
2018-01-23T11:59:14.831Z,36.13
2018-01-23T12:01:41.020Z,38.30
2018-01-23T12:04:07.968Z,43.07
2018-01-23T12:06:34.895Z,33.70
2018-01-23T12:09:01.106Z,33.67
2018-01-23T12:11:27.291Z,33.27
2018-01-23T12:13:53.495Z,35.73
2018-01-23T12:16:20.415Z,38.37
2018-01-23T12:18:46.627Z,36.60
2018-01-23T12:21:12.811Z,33.70
2018-01-23T12:23:39.758Z,34.40
2018-01-23T12:26:05.947Z,39.90
2018-01-23T12:28:32.160Z,41.23
2018-01-23T12:30:58.343Z,36.97
2018-01-23T12:33:25.299Z,39.73
2018-01-23T12:35:51.527Z,33.80
2018-01-23T12:38:17.751Z,36.20
2018-01-23T12:40:44.670Z,34.30
2018-01-23T12:43:10.879Z,41.33
2018-01-23T12:45:37.062Z,45.20
2018-01-23T12:48:03.291Z,32.33
2018-01-23T12:50:29.466Z,38.13
2018-01-23T12:52:55.968Z,50.73
2018-01-23T12:55:22.147Z,31.50
2018-01-23T12:57:48.552Z,34.47
2018-01-23T13:00:14.806Z,20.73
2018-01-23T13:02:40.991Z,24.53
2018-01-23T13:05:07.200Z,29.23
2018-01-23T13:07:33.388Z,22.00
2018-01-23T13:10:00.383Z,26.70
2018-01-23T13:12:26.610Z,31.40
2018-01-23T13:14:53.539Z,19.63
2018-01-23T13:17:20.531Z,23.53
2018-01-23T13:19:46.963Z,20.33
2018-01-23T13:22:13.143Z,22.90
2018-01-23T13:24:40.063Z,20.57
2018-01-23T13:27:06.275Z,22.07
2018-01-23T13:29:32.455Z,18.40
2018-01-23T13:31:58.665Z,25.43
2018-01-23T13:34:25.595Z,23.20
2018-01-23T13:36:51.894Z,30.50
2018-01-23T13:39:18.066Z,18.30
2018-01-23T13:41:44.280Z,19.80
2018-01-23T13:44:10.458Z,15.40
2018-01-23T13:46:36.699Z,13.77
2018-01-23T13:49:02.901Z,17.50
2018-01-23T13:51:29.088Z,15.90
2018-01-23T13:53:55.299Z,16.47
2018-01-23T13:56:21.484Z,24.17
2018-01-23T13:58:48.431Z,19.63
2018-01-23T14:01:15.346Z,22.97
2018-01-23T14:03:42.300Z,24.60
2018-01-23T14:06:08.479Z,13.30
2018-01-23T14:08:34.687Z,22.63
2018-01-23T14:11:00.862Z,20.90
2018-01-23T14:13:27.147Z,16.77
2018-01-23T14:15:53.323Z,29.50
2018-01-23T14:18:19.523Z,21.10
2018-01-23T14:20:45.694Z,29.90
2018-01-23T14:23:11.871Z,24.07
2018-01-23T14:25:38.084Z,22.50
2018-01-23T14:28:04.268Z,20.00
2018-01-23T14:30:30.475Z,24.10
2018-01-23T14:32:56.651Z,18.97
2018-01-23T14:35:23.646Z,19.87
2018-01-23T14:37:49.831Z,14.47
2018-01-23T14:40:16.807Z,24.43
2018-01-23T14:42:43.016Z,20.47
2018-01-23T14:45:09.199Z,18.40
2018-01-23T14:47:35.406Z,19.20
2018-01-23T14:50:01.607Z,25.30
2018-01-23T14:52:27.843Z,18.20
2018-01-23T14:54:54.023Z,17.87
2018-01-23T14:57:21.683Z,24.77
2018-01-23T14:59:47.895Z,22.70
2018-01-23T15:02:14.084Z,22.23
2018-01-23T15:04:40.291Z,22.10
2018-01-23T15:07:07.235Z,24.87
2018-01-23T15:09:34.183Z,23.30
2018-01-23T15:12:01.107Z,25.37
2018-01-23T15:14:27.314Z,20.87
2018-01-23T15:16:53.495Z,25.50
2018-01-23T15:19:20.446Z,15.60
2018-01-23T15:21:47.363Z,32.20
2018-01-23T15:24:14.323Z,27.43
2018-01-23T15:26:41.247Z,24.17
2018-01-23T15:29:07.456Z,28.37
2018-01-23T15:31:34.027Z,22.13
2018-01-23T15:34:00.983Z,17.07
2018-01-23T15:36:27.939Z,22.57
2018-01-23T15:38:54.864Z,25.13
2018-01-23T15:41:21.098Z,22.53
2018-01-23T15:43:48.019Z,30.50
2018-01-23T15:46:14.227Z,21.87
2018-01-23T15:48:40.418Z,27.80
2018-01-23T15:51:06.636Z,25.47
2018-01-23T15:53:33.555Z,20.87
2018-01-23T15:55:59.764Z,23.70
2018-01-23T15:58:25.946Z,27.33
2018-01-23T16:00:52.915Z,27.37
2018-01-23T16:03:19.091Z,19.80
2018-01-23T16:05:45.316Z,19.10
2018-01-23T16:08:11.495Z,20.43
2018-01-23T16:10:37.704Z,18.50
2018-01-23T16:13:04.627Z,20.00
2018-01-23T16:15:30.839Z,16.70
2018-01-23T16:17:57.019Z,17.83
2018-01-23T16:20:23.223Z,16.37
2018-01-23T16:22:50.142Z,24.13
2018-01-23T16:25:16.361Z,15.13
2018-01-23T16:27:42.538Z,17.33
2018-01-23T16:30:09.494Z,29.23
2018-01-23T16:32:35.947Z,15.33
2018-01-23T16:35:02.155Z,16.60
2018-01-23T16:37:28.363Z,17.80
2018-01-23T16:39:55.306Z,20.57
2018-01-23T16:42:22.227Z,25.47
2018-01-23T16:44:48.435Z,16.43
2018-01-23T16:47:14.646Z,15.80
2018-01-23T16:49:41.001Z,13.03
2018-01-23T16:52:07.183Z,18.07
2018-01-23T16:54:34.123Z,22.83
2018-01-23T16:57:01.087Z,19.70
2018-01-23T16:59:27.287Z,14.63
2018-01-23T17:01:53.495Z,14.43
2018-01-23T17:04:19.674Z,15.40
2018-01-23T17:06:45.883Z,11.30
2018-01-23T17:09:12.795Z,14.40
2018-01-23T17:11:39.007Z,19.13
2018-01-23T17:14:05.183Z,10.90
2018-01-23T17:16:32.134Z,16.83
2018-01-23T17:18:59.059Z,10.80
2018-01-23T17:21:25.279Z,10.90
2018-01-23T17:23:51.459Z,9.93
2018-01-23T17:26:17.678Z,7.57
2018-01-23T17:28:44.126Z,13.67
2018-01-23T17:31:10.326Z,12.57
2018-01-23T17:33:36.503Z,15.03
2018-01-23T17:36:02.789Z,17.33
2018-01-23T17:38:29.715Z,11.97
2018-01-23T17:40:55.910Z,10.73
2018-01-23T17:43:22.119Z,10.30
2018-01-23T17:45:48.336Z,17.43
2018-01-23T17:48:14.543Z,12.83
2018-01-23T17:50:41.510Z,11.13
2018-01-23T17:53:07.773Z,12.27
2018-01-23T17:55:33.956Z,16.13
2018-01-23T17:58:01.393Z,13.13
2018-01-23T18:00:28.582Z,11.97
2018-01-23T18:02:54.818Z,6.30
2018-01-23T18:05:21.016Z,8.67
2018-01-23T18:07:47.931Z,9.07
2018-01-23T18:10:14.875Z,10.73
2018-01-23T18:12:41.102Z,12.50
2018-01-23T18:15:07.348Z,6.70
2018-01-23T18:17:33.548Z,7.93
2018-01-23T18:19:59.754Z,9.27
2018-01-23T18:22:25.931Z,10.67
2018-01-23T18:24:52.177Z,7.97
2018-01-23T18:27:19.103Z,9.57
2018-01-23T18:29:45.311Z,10.50
2018-01-23T18:32:12.266Z,11.07
2018-01-23T18:34:38.514Z,10.30
2018-01-23T18:37:04.767Z,6.00
2018-01-23T18:39:31.725Z,34.63
2018-01-23T18:41:57.899Z,5.63
2018-01-23T18:44:24.076Z,18.13
2018-01-23T18:46:50.274Z,9.70
2018-01-23T18:49:16.451Z,8.57
2018-01-23T18:51:42.703Z,14.83
2018-01-23T18:54:08.934Z,8.60
2018-01-23T18:56:35.143Z,22.50
2018-01-23T18:59:01.319Z,4.97
2018-01-23T19:01:27.566Z,9.60
2018-01-23T19:03:54.486Z,4.70
2018-01-23T19:06:20.687Z,13.30
2018-01-23T19:08:46.929Z,10.93
2018-01-23T19:11:13.132Z,5.10
2018-01-23T19:13:39.348Z,7.93
2018-01-23T19:16:05.550Z,10.93
2018-01-23T19:18:32.526Z,5.40
2018-01-23T19:20:58.739Z,5.53
2018-01-23T19:23:24.961Z,6.97
2018-01-23T19:25:51.935Z,7.17
2018-01-23T19:28:18.195Z,6.73
2018-01-23T19:30:44.442Z,11.73
2018-01-23T19:33:10.707Z,10.73
2018-01-23T19:35:36.939Z,2.70
2018-01-23T19:38:03.203Z,10.30
2018-01-23T19:40:29.518Z,7.53
2018-01-23T19:42:55.735Z,9.50
2018-01-23T19:45:21.952Z,3.10
2018-01-23T19:47:48.152Z,11.00
2018-01-23T19:50:14.378Z,9.87
2018-01-23T19:52:40.863Z,12.10
2018-01-23T19:55:07.198Z,5.60
2018-01-23T19:57:33.407Z,6.63
2018-01-23T19:59:59.585Z,7.67
2018-01-23T20:02:25.763Z,16.70
2018-01-23T20:04:52.010Z,7.23
2018-01-23T20:07:18.243Z,11.00
2018-01-23T20:09:44.490Z,12.20
2018-01-23T20:12:10.786Z,5.63
2018-01-23T20:14:37.031Z,7.00
2018-01-23T20:17:03.209Z,11.53
2018-01-23T20:19:29.415Z,11.20
2018-01-23T20:21:55.651Z,6.10
2018-01-23T20:24:21.906Z,4.80
2018-01-23T20:26:48.873Z,9.43
2018-01-23T20:29:15.141Z,16.73
2018-01-23T20:31:41.382Z,9.47
2018-01-23T20:34:07.584Z,9.00
2018-01-23T20:36:33.790Z,5.33
2018-01-23T20:38:59.999Z,15.20
2018-01-23T20:41:26.919Z,7.50
2018-01-23T20:43:53.182Z,5.90
2018-01-23T20:46:20.104Z,7.40
2018-01-23T20:48:46.367Z,15.93
2018-01-23T20:51:12.547Z,7.93
2018-01-23T20:53:39.051Z,9.50
2018-01-23T20:56:05.235Z,13.83
2018-01-23T20:58:32.183Z,5.80
2018-01-23T21:00:59.135Z,8.20
2018-01-23T21:03:25.346Z,7.07
2018-01-23T21:05:52.340Z,28.20
2018-01-23T21:08:18.535Z,6.50
2018-01-23T21:10:45.529Z,15.60
2018-01-23T21:13:11.762Z,12.53
2018-01-23T21:15:38.209Z,11.03
2018-01-23T21:18:04.411Z,9.97
2018-01-23T21:20:30.656Z,13.63
2018-01-23T21:22:56.934Z,8.33
2018-01-23T21:25:23.427Z,30.60
2018-01-23T21:27:49.650Z,9.90
2018-01-23T21:30:15.857Z,8.83
2018-01-23T21:32:42.128Z,8.07
2018-01-23T21:35:08.340Z,9.10
2018-01-23T21:37:34.579Z,9.40
2018-01-23T21:40:00.828Z,9.60
2018-01-23T21:42:27.043Z,11.73
2018-01-23T21:44:53.275Z,9.50
2018-01-23T21:47:19.488Z,15.03
2018-01-23T21:49:45.669Z,12.50
2018-01-23T21:52:12.619Z,26.13
2018-01-23T21:54:38.858Z,9.30
2018-01-23T21:57:05.072Z,23.37
2018-01-23T21:59:32.043Z,13.63
2018-01-23T22:01:58.251Z,8.03
2018-01-23T22:04:25.228Z,11.97
2018-01-23T22:06:51.542Z,8.83
2018-01-23T22:09:17.770Z,10.33
2018-01-23T22:11:43.980Z,9.10
2018-01-23T22:14:10.944Z,19.70
2018-01-23T22:16:37.179Z,10.37
2018-01-23T22:19:03.964Z,11.50
2018-01-23T22:21:30.203Z,14.00
2018-01-23T22:23:56.386Z,10.37
2018-01-23T22:26:22.622Z,15.63
2018-01-23T22:28:48.835Z,18.10
2018-01-23T22:31:15.061Z,12.77
2018-01-23T22:33:41.309Z,13.67
2018-01-23T22:36:07.843Z,13.37
2018-01-23T22:38:34.099Z,12.40
2018-01-23T22:41:00.279Z,9.27
2018-01-23T22:43:26.490Z,7.20
2018-01-23T22:45:53.408Z,6.50
2018-01-23T22:48:19.627Z,15.10
2018-01-23T22:50:45.803Z,13.87
2018-01-23T22:53:12.782Z,12.77
2018-01-23T22:55:38.955Z,10.13
2018-01-23T22:58:05.132Z,7.03
2018-01-23T23:00:31.347Z,8.23
2018-01-23T23:02:57.555Z,19.50
2018-01-23T23:05:24.488Z,9.13
2018-01-23T23:07:50.667Z,15.47
2018-01-23T23:10:16.871Z,24.10
2018-01-23T23:12:43.051Z,17.50
2018-01-23T23:15:09.258Z,8.13
2018-01-23T23:17:35.939Z,8.20
2018-01-23T23:20:02.160Z,9.70
2018-01-23T23:22:28.339Z,14.10
2018-01-23T23:24:54.551Z,8.03
2018-01-23T23:27:21.467Z,13.33
2018-01-23T23:29:47.683Z,9.20
2018-01-23T23:32:13.871Z,9.50
2018-01-23T23:34:40.079Z,8.53
2018-01-23T23:37:07.027Z,8.00
2018-01-23T23:39:33.946Z,11.33
2018-01-23T23:42:00.159Z,15.80
2018-01-23T23:44:26.343Z,15.47
2018-01-23T23:46:52.551Z,11.83
2018-01-23T23:49:18.727Z,6.93
2018-01-23T23:51:44.960Z,9.90
2018-01-23T23:54:11.145Z,11.63
2018-01-23T23:56:38.099Z,5.73
2018-01-23T23:59:04.283Z,9.90
